Terminal Aerodrome Forecast
Issued by NWS Green Bay, WI

Home | Current Version | Previous Version | Text Only | Print | Product List | Glossary On
Versions: 1 2 3 4 5 6 7 8 9 10 11 12 13 14 15 16 17
000
FTUS43 KGRB 272325
TAFGRB
TAF
KGRB 272325Z 2800/2824 23008KT P6SM SCT060
     FM280200 20005KT P6SM SCT250
     FM281200 19008KT P6SM BKN120
     FM281500 18012G22KT P6SM SCT045 BKN080
      TEMPO 2817/2821 4SM -TSRA OVC035CB
     FM282100 18015G25KT P6SM -SHRA BKN045
      TEMPO 2821/2824 3SM TSRA OVC035CB=

USA.gov is the U.S. government's official web portal to all federal, state and local government web resources and services.